Portada
METAR-TAF:

METAR-TAF

Aeropuertos :

Aeropuerto de Burgos

Burgos, España

latitud: 42-22N, longitud: 003-38W, altitud: 894 m

Observación

El informe se hizo hace 31 minutos, a las 08:30 UTC
Viento calma
Temperatura 3°C
Humedad 70%
Presión 1032 hPa
Visibilidad 10 km o más
sin nubes por debajo de 1500 m y sin presencia de cumulonimbus.

METAR: LEBG 220830Z 00000KT CAVOK 03/M02 Q1032

Hora: 10:01 (09:01 UTC)

Pronóstico

El informe se hizo hace 1 hora y 1 minutos, a las 08:00 UTC
Pronóstico válido del 22 a las 09 UTC al 22 a las 18 UTC
Viento 4 kt del sur-sureste
Visibilidad 10 km o más
sin nubes por debajo de 1500 m y sin presencia de cumulonimbus.

TAF: LEBG 220800Z 2209/2218 16004KT CAVOK

Observaciones y pronósticos meteorológicos de más de 4000 aeropuertos (mensajes METAR y TAF).

Los puntos amarillos y rojos representan las estaciones disponibles.

Ponga el ratón en el punto deseado para ver el nombre de la estación.

Haga clic para ver las observaciones y los pronósticos meteorológicos.

Para cambiar el mapa : haga clic en los botones verdes con una cruz de color negro para hacer un zoom, en el botón verde con un guión para alejar o en las flechas verdes para mapas adyacentes.


METAR-TAF: